sensor_id;sensor_type;location;lat;lon;timestamp;P1;durP1;ratioP1;P2;durP2;ratioP2
4519;SDS011;2272;49.226;8.108;2023-07-09T00:01:40;9.50;;;5.80;;
4519;SDS011;2272;49.226;8.108;2023-07-09T00:04:08;6.70;;;5.00;;
4519;SDS011;2272;49.226;8.108;2023-07-09T00:06:35;7.93;;;4.47;;
4519;SDS011;2272;49.226;8.108;2023-07-09T00:09:04;11.67;;;4.40;;
4519;SDS011;2272;49.226;8.108;2023-07-09T00:11:31;11.63;;;5.17;;
4519;SDS011;2272;49.226;8.108;2023-07-09T00:13:58;6.00;;;4.27;;
4519;SDS011;2272;49.226;8.108;2023-07-09T00:16:25;10.00;;;4.00;;
4519;SDS011;2272;49.226;8.108;2023-07-09T00:18:52;8.40;;;3.93;;
4519;SDS011;2272;49.226;8.108;2023-07-09T00:21:19;5.03;;;4.40;;
4519;SDS011;2272;49.226;8.108;2023-07-09T00:23:47;10.93;;;4.83;;
4519;SDS011;2272;49.226;8.108;2023-07-09T00:26:16;8.77;;;4.27;;
4519;SDS011;2272;49.226;8.108;2023-07-09T00:28:45;4.70;;;3.60;;
4519;SDS011;2272;49.226;8.108;2023-07-09T00:31:13;3.90;;;3.60;;
4519;SDS011;2272;49.226;8.108;2023-07-09T00:33:41;6.23;;;4.40;;
4519;SDS011;2272;49.226;8.108;2023-07-09T00:36:10;11.20;;;4.00;;
4519;SDS011;2272;49.226;8.108;2023-07-09T00:38:41;3.80;;;3.50;;
4519;SDS011;2272;49.226;8.108;2023-07-09T00:41:14;5.00;;;4.00;;
4519;SDS011;2272;49.226;8.108;2023-07-09T00:43:44;6.40;;;4.13;;
4519;SDS011;2272;49.226;8.108;2023-07-09T00:46:14;4.40;;;3.67;;
4519;SDS011;2272;49.226;8.108;2023-07-09T00:49:03;4.67;;;4.10;;
4519;SDS011;2272;49.226;8.108;2023-07-09T00:51:36;4.80;;;4.40;;
4519;SDS011;2272;49.226;8.108;2023-07-09T00:54:17;6.57;;;3.70;;
4519;SDS011;2272;49.226;8.108;2023-07-09T00:56:50;4.90;;;3.60;;
4519;SDS011;2272;49.226;8.108;2023-07-09T00:59:22;9.73;;;4.03;;
4519;SDS011;2272;49.226;8.108;2023-07-09T01:01:53;5.37;;;4.40;;
4519;SDS011;2272;49.226;8.108;2023-07-09T01:04:21;5.27;;;3.80;;
4519;SDS011;2272;49.226;8.108;2023-07-09T01:06:50;6.20;;;4.63;;
4519;SDS011;2272;49.226;8.108;2023-07-09T01:09:19;4.40;;;4.00;;
4519;SDS011;2272;49.226;8.108;2023-07-09T01:11:46;6.60;;;3.90;;
4519;SDS011;2272;49.226;8.108;2023-07-09T01:14:15;7.50;;;3.87;;
4519;SDS011;2272;49.226;8.108;2023-07-09T01:16:48;5.83;;;4.10;;
4519;SDS011;2272;49.226;8.108;2023-07-09T01:19:22;6.97;;;4.97;;
4519;SDS011;2272;49.226;8.108;2023-07-09T01:21:51;5.10;;;3.73;;
4519;SDS011;2272;49.226;8.108;2023-07-09T01:27:15;18.20;;;4.93;;
4519;SDS011;2272;49.226;8.108;2023-07-09T01:29:44;5.87;;;4.63;;
4519;SDS011;2272;49.226;8.108;2023-07-09T01:32:14;6.20;;;4.77;;
4519;SDS011;2272;49.226;8.108;2023-07-09T01:34:43;9.53;;;5.90;;
4519;SDS011;2272;49.226;8.108;2023-07-09T01:37:13;5.10;;;4.50;;
4519;SDS011;2272;49.226;8.108;2023-07-09T01:39:41;5.33;;;4.23;;
4519;SDS011;2272;49.226;8.108;2023-07-09T01:42:08;8.10;;;4.93;;
4519;SDS011;2272;49.226;8.108;2023-07-09T01:44:35;5.73;;;3.67;;
4519;SDS011;2272;49.226;8.108;2023-07-09T01:47:03;9.67;;;4.33;;
4519;SDS011;2272;49.226;8.108;2023-07-09T01:49:31;5.60;;;4.10;;
4519;SDS011;2272;49.226;8.108;2023-07-09T01:51:58;4.87;;;4.13;;
4519;SDS011;2272;49.226;8.108;2023-07-09T01:54:29;9.70;;;4.60;;
4519;SDS011;2272;49.226;8.108;2023-07-09T01:57:13;4.77;;;4.27;;
4519;SDS011;2272;49.226;8.108;2023-07-09T01:59:41;4.77;;;4.37;;
4519;SDS011;2272;49.226;8.108;2023-07-09T02:02:09;6.10;;;4.30;;
4519;SDS011;2272;49.226;8.108;2023-07-09T02:04:40;9.10;;;3.80;;
4519;SDS011;2272;49.226;8.108;2023-07-09T02:07:07;5.60;;;4.27;;
4519;SDS011;2272;49.226;8.108;2023-07-09T02:09:36;6.47;;;3.97;;
4519;SDS011;2272;49.226;8.108;2023-07-09T02:12:03;12.37;;;4.90;;
4519;SDS011;2272;49.226;8.108;2023-07-09T02:14:30;9.07;;;4.23;;
4519;SDS011;2272;49.226;8.108;2023-07-09T02:16:56;3.97;;;3.37;;
4519;SDS011;2272;49.226;8.108;2023-07-09T02:19:23;4.53;;;3.93;;
4519;SDS011;2272;49.226;8.108;2023-07-09T02:21:50;9.30;;;4.67;;
4519;SDS011;2272;49.226;8.108;2023-07-09T02:24:17;4.57;;;4.00;;
4519;SDS011;2272;49.226;8.108;2023-07-09T02:26:45;6.53;;;3.90;;
4519;SDS011;2272;49.226;8.108;2023-07-09T02:29:11;4.43;;;3.63;;
4519;SDS011;2272;49.226;8.108;2023-07-09T02:31:38;5.40;;;4.10;;
4519;SDS011;2272;49.226;8.108;2023-07-09T02:34:05;6.57;;;4.33;;
4519;SDS011;2272;49.226;8.108;2023-07-09T02:36:32;3.70;;;3.40;;
4519;SDS011;2272;49.226;8.108;2023-07-09T02:38:59;10.60;;;4.10;;
4519;SDS011;2272;49.226;8.108;2023-07-09T02:41:25;5.43;;;3.73;;
4519;SDS011;2272;49.226;8.108;2023-07-09T02:43:56;6.00;;;4.10;;
4519;SDS011;2272;49.226;8.108;2023-07-09T02:46:22;3.83;;;3.53;;
4519;SDS011;2272;49.226;8.108;2023-07-09T02:48:49;3.60;;;3.30;;
4519;SDS011;2272;49.226;8.108;2023-07-09T02:51:16;12.80;;;4.07;;
4519;SDS011;2272;49.226;8.108;2023-07-09T02:53:42;5.53;;;3.90;;
4519;SDS011;2272;49.226;8.108;2023-07-09T02:56:09;3.83;;;3.53;;
4519;SDS011;2272;49.226;8.108;2023-07-09T02:58:36;4.37;;;3.73;;
4519;SDS011;2272;49.226;8.108;2023-07-09T03:01:04;4.63;;;4.23;;
4519;SDS011;2272;49.226;8.108;2023-07-09T03:03:31;4.60;;;4.20;;
4519;SDS011;2272;49.226;8.108;2023-07-09T03:05:58;4.37;;;3.97;;
4519;SDS011;2272;49.226;8.108;2023-07-09T03:08:24;4.20;;;3.60;;
4519;SDS011;2272;49.226;8.108;2023-07-09T03:10:51;4.47;;;4.03;;
4519;SDS011;2272;49.226;8.108;2023-07-09T03:13:18;8.50;;;5.20;;
4519;SDS011;2272;49.226;8.108;2023-07-09T03:15:53;5.40;;;4.30;;
4519;SDS011;2272;49.226;8.108;2023-07-09T03:18:21;5.63;;;4.43;;
4519;SDS011;2272;49.226;8.108;2023-07-09T03:20:48;5.00;;;3.90;;
4519;SDS011;2272;49.226;8.108;2023-07-09T03:23:15;5.37;;;3.73;;
4519;SDS011;2272;49.226;8.108;2023-07-09T03:25:42;4.67;;;4.03;;
4519;SDS011;2272;49.226;8.108;2023-07-09T03:28:09;5.60;;;4.10;;
4519;SDS011;2272;49.226;8.108;2023-07-09T03:30:39;5.30;;;3.70;;
4519;SDS011;2272;49.226;8.108;2023-07-09T03:33:06;4.07;;;3.67;;
4519;SDS011;2272;49.226;8.108;2023-07-09T03:35:34;16.43;;;3.90;;
4519;SDS011;2272;49.226;8.108;2023-07-09T03:38:03;7.10;;;4.50;;
4519;SDS011;2272;49.226;8.108;2023-07-09T03:40:30;4.90;;;4.47;;
4519;SDS011;2272;49.226;8.108;2023-07-09T03:42:58;6.37;;;4.53;;
4519;SDS011;2272;49.226;8.108;2023-07-09T03:45:24;4.53;;;4.13;;
4519;SDS011;2272;49.226;8.108;2023-07-09T03:47:51;6.60;;;5.07;;
4519;SDS011;2272;49.226;8.108;2023-07-09T03:50:18;8.83;;;4.40;;
4519;SDS011;2272;49.226;8.108;2023-07-09T03:52:46;10.40;;;4.57;;
4519;SDS011;2272;49.226;8.108;2023-07-09T03:55:13;6.77;;;3.93;;
4519;SDS011;2272;49.226;8.108;2023-07-09T03:57:40;4.93;;;4.53;;
4519;SDS011;2272;49.226;8.108;2023-07-09T04:00:07;5.93;;;4.00;;
4519;SDS011;2272;49.226;8.108;2023-07-09T04:02:36;4.43;;;4.03;;
4519;SDS011;2272;49.226;8.108;2023-07-09T04:05:04;4.40;;;4.00;;
4519;SDS011;2272;49.226;8.108;2023-07-09T04:07:31;10.93;;;4.70;;
4519;SDS011;2272;49.226;8.108;2023-07-09T04:10:00;4.83;;;4.43;;
4519;SDS011;2272;49.226;8.108;2023-07-09T04:12:27;7.47;;;4.60;;
4519;SDS011;2272;49.226;8.108;2023-07-09T04:14:54;5.67;;;4.17;;
4519;SDS011;2272;49.226;8.108;2023-07-09T04:17:20;5.53;;;3.50;;
4519;SDS011;2272;49.226;8.108;2023-07-09T04:19:48;3.80;;;3.50;;
4519;SDS011;2272;49.226;8.108;2023-07-09T04:22:15;6.83;;;4.57;;
4519;SDS011;2272;49.226;8.108;2023-07-09T04:24:42;3.83;;;3.53;;
4519;SDS011;2272;49.226;8.108;2023-07-09T04:27:10;5.07;;;4.20;;
4519;SDS011;2272;49.226;8.108;2023-07-09T04:29:39;5.77;;;4.37;;
4519;SDS011;2272;49.226;8.108;2023-07-09T04:32:06;6.73;;;4.60;;
4519;SDS011;2272;49.226;8.108;2023-07-09T04:34:34;10.90;;;4.20;;
4519;SDS011;2272;49.226;8.108;2023-07-09T04:37:01;4.73;;;3.90;;
4519;SDS011;2272;49.226;8.108;2023-07-09T04:39:27;5.93;;;3.77;;
4519;SDS011;2272;49.226;8.108;2023-07-09T04:41:54;6.63;;;4.30;;
4519;SDS011;2272;49.226;8.108;2023-07-09T04:44:22;5.27;;;3.93;;
4519;SDS011;2272;49.226;8.108;2023-07-09T04:46:50;3.90;;;3.50;;
4519;SDS011;2272;49.226;8.108;2023-07-09T04:49:16;4.80;;;3.30;;
4519;SDS011;2272;49.226;8.108;2023-07-09T04:51:43;8.83;;;4.10;;
4519;SDS011;2272;49.226;8.108;2023-07-09T04:54:10;16.37;;;4.70;;
4519;SDS011;2272;49.226;8.108;2023-07-09T04:56:40;8.50;;;4.23;;
4519;SDS011;2272;49.226;8.108;2023-07-09T04:59:09;8.07;;;5.10;;
4519;SDS011;2272;49.226;8.108;2023-07-09T05:01:38;6.00;;;5.13;;
4519;SDS011;2272;49.226;8.108;2023-07-09T05:04:05;5.00;;;4.50;;
4519;SDS011;2272;49.226;8.108;2023-07-09T05:06:32;5.13;;;4.50;;
4519;SDS011;2272;49.226;8.108;2023-07-09T05:08:59;6.27;;;5.10;;
4519;SDS011;2272;49.226;8.108;2023-07-09T05:11:26;6.50;;;5.47;;
4519;SDS011;2272;49.226;8.108;2023-07-09T05:13:53;6.50;;;4.73;;
4519;SDS011;2272;49.226;8.108;2023-07-09T05:16:20;5.00;;;4.60;;
4519;SDS011;2272;49.226;8.108;2023-07-09T05:18:48;6.00;;;5.33;;
4519;SDS011;2272;49.226;8.108;2023-07-09T05:21:15;5.13;;;4.63;;
4519;SDS011;2272;49.226;8.108;2023-07-09T05:23:42;5.40;;;4.70;;
4519;SDS011;2272;49.226;8.108;2023-07-09T05:26:09;6.30;;;4.20;;
4519;SDS011;2272;49.226;8.108;2023-07-09T05:28:36;6.80;;;5.13;;
4519;SDS011;2272;49.226;8.108;2023-07-09T05:31:03;4.97;;;4.50;;
4519;SDS011;2272;49.226;8.108;2023-07-09T05:33:30;6.13;;;4.80;;
4519;SDS011;2272;49.226;8.108;2023-07-09T05:35:58;4.93;;;4.27;;
4519;SDS011;2272;49.226;8.108;2023-07-09T05:38:27;5.47;;;4.97;;
4519;SDS011;2272;49.226;8.108;2023-07-09T05:40:59;5.00;;;4.50;;
4519;SDS011;2272;49.226;8.108;2023-07-09T05:43:26;5.07;;;4.57;;
4519;SDS011;2272;49.226;8.108;2023-07-09T05:45:53;6.20;;;4.80;;
4519;SDS011;2272;49.226;8.108;2023-07-09T05:48:19;7.30;;;4.80;;
4519;SDS011;2272;49.226;8.108;2023-07-09T05:50:47;5.47;;;4.27;;
4519;SDS011;2272;49.226;8.108;2023-07-09T05:53:19;5.60;;;4.57;;
4519;SDS011;2272;49.226;8.108;2023-07-09T05:55:46;5.00;;;4.50;;
4519;SDS011;2272;49.226;8.108;2023-07-09T05:58:13;5.40;;;4.70;;
4519;SDS011;2272;49.226;8.108;2023-07-09T06:00:39;4.70;;;4.30;;
4519;SDS011;2272;49.226;8.108;2023-07-09T06:03:07;7.77;;;4.80;;
4519;SDS011;2272;49.226;8.108;2023-07-09T06:05:34;6.27;;;4.50;;
4519;SDS011;2272;49.226;8.108;2023-07-09T06:08:01;4.90;;;4.50;;
4519;SDS011;2272;49.226;8.108;2023-07-09T06:10:30;5.53;;;4.10;;
4519;SDS011;2272;49.226;8.108;2023-07-09T06:12:57;11.77;;;5.00;;
4519;SDS011;2272;49.226;8.108;2023-07-09T06:15:24;6.83;;;5.40;;
4519;SDS011;2272;49.226;8.108;2023-07-09T06:17:51;5.33;;;4.93;;
4519;SDS011;2272;49.226;8.108;2023-07-09T06:20:17;5.60;;;4.20;;
4519;SDS011;2272;49.226;8.108;2023-07-09T06:22:44;4.17;;;3.87;;
4519;SDS011;2272;49.226;8.108;2023-07-09T06:25:12;4.13;;;3.73;;
4519;SDS011;2272;49.226;8.108;2023-07-09T06:27:40;5.23;;;4.70;;
4519;SDS011;2272;49.226;8.108;2023-07-09T06:30:07;5.90;;;3.63;;
4519;SDS011;2272;49.226;8.108;2023-07-09T06:32:34;4.83;;;4.13;;
4519;SDS011;2272;49.226;8.108;2023-07-09T06:35:01;6.03;;;4.63;;
4519;SDS011;2272;49.226;8.108;2023-07-09T06:37:28;5.60;;;4.60;;
4519;SDS011;2272;49.226;8.108;2023-07-09T06:39:55;6.87;;;4.10;;
4519;SDS011;2272;49.226;8.108;2023-07-09T06:42:21;4.40;;;4.10;;
4519;SDS011;2272;49.226;8.108;2023-07-09T06:44:50;6.90;;;5.40;;
4519;SDS011;2272;49.226;8.108;2023-07-09T06:47:16;4.93;;;4.40;;
4519;SDS011;2272;49.226;8.108;2023-07-09T06:49:43;6.77;;;4.87;;
4519;SDS011;2272;49.226;8.108;2023-07-09T06:52:10;5.37;;;4.90;;
4519;SDS011;2272;49.226;8.108;2023-07-09T06:54:36;6.60;;;4.93;;
4519;SDS011;2272;49.226;8.108;2023-07-09T06:57:03;11.30;;;5.90;;
4519;SDS011;2272;49.226;8.108;2023-07-09T06:59:30;8.73;;;5.03;;
4519;SDS011;2272;49.226;8.108;2023-07-09T07:01:58;5.50;;;4.83;;
4519;SDS011;2272;49.226;8.108;2023-07-09T07:04:25;5.03;;;4.53;;
4519;SDS011;2272;49.226;8.108;2023-07-09T07:06:52;5.43;;;4.83;;
4519;SDS011;2272;49.226;8.108;2023-07-09T07:09:21;6.43;;;5.37;;
4519;SDS011;2272;49.226;8.108;2023-07-09T07:11:48;7.53;;;5.37;;
4519;SDS011;2272;49.226;8.108;2023-07-09T07:14:15;6.70;;;5.10;;
4519;SDS011;2272;49.226;8.108;2023-07-09T07:16:42;7.77;;;5.40;;
4519;SDS011;2272;49.226;8.108;2023-07-09T07:19:10;6.43;;;4.73;;
4519;SDS011;2272;49.226;8.108;2023-07-09T07:21:37;6.13;;;5.23;;
4519;SDS011;2272;49.226;8.108;2023-07-09T07:24:04;10.43;;;5.13;;
4519;SDS011;2272;49.226;8.108;2023-07-09T07:26:31;5.33;;;4.57;;
4519;SDS011;2272;49.226;8.108;2023-07-09T07:28:57;6.47;;;4.30;;
4519;SDS011;2272;49.226;8.108;2023-07-09T07:31:24;5.27;;;4.60;;
4519;SDS011;2272;49.226;8.108;2023-07-09T07:33:51;10.83;;;5.67;;
4519;SDS011;2272;49.226;8.108;2023-07-09T07:36:19;6.00;;;4.80;;
4519;SDS011;2272;49.226;8.108;2023-07-09T07:38:46;9.03;;;4.60;;
4519;SDS011;2272;49.226;8.108;2023-07-09T07:41:12;12.33;;;5.40;;
4519;SDS011;2272;49.226;8.108;2023-07-09T07:43:39;10.37;;;4.67;;
4519;SDS011;2272;49.226;8.108;2023-07-09T07:46:06;5.93;;;5.00;;
4519;SDS011;2272;49.226;8.108;2023-07-09T07:48:33;11.77;;;5.40;;
4519;SDS011;2272;49.226;8.108;2023-07-09T07:51:00;10.70;;;5.47;;
4519;SDS011;2272;49.226;8.108;2023-07-09T07:53:29;6.07;;;5.20;;
4519;SDS011;2272;49.226;8.108;2023-07-09T07:55:56;10.33;;;5.33;;
4519;SDS011;2272;49.226;8.108;2023-07-09T07:58:22;9.73;;;5.40;;
4519;SDS011;2272;49.226;8.108;2023-07-09T08:00:49;15.13;;;5.83;;
4519;SDS011;2272;49.226;8.108;2023-07-09T08:03:21;7.37;;;4.70;;
4519;SDS011;2272;49.226;8.108;2023-07-09T08:05:48;7.70;;;5.30;;
4519;SDS011;2272;49.226;8.108;2023-07-09T08:08:15;7.67;;;5.00;;
4519;SDS011;2272;49.226;8.108;2023-07-09T08:10:43;4.80;;;4.37;;
4519;SDS011;2272;49.226;8.108;2023-07-09T08:13:10;6.10;;;4.80;;
4519;SDS011;2272;49.226;8.108;2023-07-09T08:15:38;8.70;;;5.50;;
4519;SDS011;2272;49.226;8.108;2023-07-09T08:18:05;5.57;;;5.07;;
4519;SDS011;2272;49.226;8.108;2023-07-09T08:20:31;6.40;;;5.33;;
4519;SDS011;2272;49.226;8.108;2023-07-09T08:22:59;14.50;;;5.10;;
4519;SDS011;2272;49.226;8.108;2023-07-09T08:25:25;10.30;;;5.23;;
4519;SDS011;2272;49.226;8.108;2023-07-09T08:27:53;4.70;;;4.27;;
4519;SDS011;2272;49.226;8.108;2023-07-09T08:30:20;5.73;;;4.63;;
4519;SDS011;2272;49.226;8.108;2023-07-09T08:32:47;6.83;;;5.03;;
4519;SDS011;2272;49.226;8.108;2023-07-09T08:35:14;7.17;;;4.80;;
4519;SDS011;2272;49.226;8.108;2023-07-09T08:37:41;6.13;;;5.37;;
4519;SDS011;2272;49.226;8.108;2023-07-09T08:40:09;8.40;;;5.97;;
4519;SDS011;2272;49.226;8.108;2023-07-09T08:42:42;5.47;;;4.90;;
4519;SDS011;2272;49.226;8.108;2023-07-09T08:45:21;9.20;;;5.07;;
4519;SDS011;2272;49.226;8.108;2023-07-09T08:47:57;5.20;;;4.70;;
4519;SDS011;2272;49.226;8.108;2023-07-09T08:50:28;10.77;;;4.93;;
4519;SDS011;2272;49.226;8.108;2023-07-09T08:53:01;8.47;;;4.93;;
4519;SDS011;2272;49.226;8.108;2023-07-09T08:55:28;5.60;;;5.00;;
4519;SDS011;2272;49.226;8.108;2023-07-09T08:58:04;4.27;;;3.97;;
4519;SDS011;2272;49.226;8.108;2023-07-09T09:00:43;6.07;;;3.90;;
4519;SDS011;2272;49.226;8.108;2023-07-09T09:03:14;12.97;;;5.17;;
4519;SDS011;2272;49.226;8.108;2023-07-09T09:05:49;4.80;;;4.40;;
4519;SDS011;2272;49.226;8.108;2023-07-09T09:08:20;11.90;;;4.77;;
4519;SDS011;2272;49.226;8.108;2023-07-09T09:11:00;6.20;;;4.43;;
4519;SDS011;2272;49.226;8.108;2023-07-09T09:13:36;10.10;;;4.17;;
4519;SDS011;2272;49.226;8.108;2023-07-09T09:16:09;4.97;;;4.57;;
4519;SDS011;2272;49.226;8.108;2023-07-09T09:18:41;5.70;;;5.13;;
4519;SDS011;2272;49.226;8.108;2023-07-09T09:21:11;7.13;;;4.37;;
4519;SDS011;2272;49.226;8.108;2023-07-09T09:23:44;5.90;;;4.23;;
4519;SDS011;2272;49.226;8.108;2023-07-09T09:26:16;4.80;;;4.40;;
4519;SDS011;2272;49.226;8.108;2023-07-09T09:28:47;4.37;;;3.90;;
4519;SDS011;2272;49.226;8.108;2023-07-09T09:31:15;5.10;;;4.13;;
4519;SDS011;2272;49.226;8.108;2023-07-09T09:33:44;5.03;;;4.03;;
4519;SDS011;2272;49.226;8.108;2023-07-09T09:36:17;5.40;;;3.47;;
4519;SDS011;2272;49.226;8.108;2023-07-09T09:38:46;4.93;;;4.10;;
4519;SDS011;2272;49.226;8.108;2023-07-09T09:41:15;4.23;;;3.70;;
4519;SDS011;2272;49.226;8.108;2023-07-09T09:43:44;4.63;;;3.50;;
4519;SDS011;2272;49.226;8.108;2023-07-09T09:46:17;3.90;;;3.70;;
4519;SDS011;2272;49.226;8.108;2023-07-09T09:48:46;15.43;;;3.30;;
4519;SDS011;2272;49.226;8.108;2023-07-09T09:51:14;5.33;;;4.07;;
4519;SDS011;2272;49.226;8.108;2023-07-09T09:53:44;7.07;;;4.40;;
4519;SDS011;2272;49.226;8.108;2023-07-09T09:56:15;4.77;;;3.90;;
4519;SDS011;2272;49.226;8.108;2023-07-09T09:58:45;7.50;;;3.80;;
4519;SDS011;2272;49.226;8.108;2023-07-09T10:01:13;3.57;;;3.10;;
4519;SDS011;2272;49.226;8.108;2023-07-09T10:03:47;3.50;;;3.20;;
4519;SDS011;2272;49.226;8.108;2023-07-09T10:06:16;6.70;;;3.93;;
4519;SDS011;2272;49.226;8.108;2023-07-09T10:08:50;6.23;;;3.53;;
4519;SDS011;2272;49.226;8.108;2023-07-09T10:11:24;3.50;;;3.20;;
4519;SDS011;2272;49.226;8.108;2023-07-09T10:13:59;4.77;;;3.60;;
4519;SDS011;2272;49.226;8.108;2023-07-09T10:16:32;5.60;;;3.03;;
4519;SDS011;2272;49.226;8.108;2023-07-09T10:19:09;7.63;;;3.93;;
4519;SDS011;2272;49.226;8.108;2023-07-09T10:21:47;6.37;;;3.50;;
4519;SDS011;2272;49.226;8.108;2023-07-09T10:24:31;4.63;;;3.60;;
4519;SDS011;2272;49.226;8.108;2023-07-09T10:27:10;10.20;;;3.90;;
4519;SDS011;2272;49.226;8.108;2023-07-09T10:29:45;8.33;;;4.27;;
4519;SDS011;2272;49.226;8.108;2023-07-09T10:32:31;3.50;;;3.20;;
4519;SDS011;2272;49.226;8.108;2023-07-09T10:35:12;3.40;;;3.20;;
4519;SDS011;2272;49.226;8.108;2023-07-09T10:40:31;4.50;;;3.37;;
4519;SDS011;2272;49.226;8.108;2023-07-09T10:43:02;3.60;;;3.20;;
4519;SDS011;2272;49.226;8.108;2023-07-09T10:45:33;8.23;;;3.90;;
4519;SDS011;2272;49.226;8.108;2023-07-09T10:48:05;4.93;;;3.60;;
4519;SDS011;2272;49.226;8.108;2023-07-09T10:50:37;4.43;;;3.93;;
4519;SDS011;2272;49.226;8.108;2023-07-09T10:53:13;5.00;;;3.70;;
4519;SDS011;2272;49.226;8.108;2023-07-09T10:55:50;3.20;;;3.00;;
4519;SDS011;2272;49.226;8.108;2023-07-09T10:58:23;5.60;;;3.13;;
4519;SDS011;2272;49.226;8.108;2023-07-09T11:00:59;3.20;;;3.10;;
4519;SDS011;2272;49.226;8.108;2023-07-09T11:03:29;9.30;;;3.73;;
4519;SDS011;2272;49.226;8.108;2023-07-09T11:06:05;3.93;;;3.50;;
4519;SDS011;2272;49.226;8.108;2023-07-09T11:08:47;5.20;;;3.93;;
4519;SDS011;2272;49.226;8.108;2023-07-09T11:11:17;3.43;;;3.00;;
4519;SDS011;2272;49.226;8.108;2023-07-09T11:13:52;5.30;;;3.17;;
4519;SDS011;2272;49.226;8.108;2023-07-09T11:16:24;3.87;;;3.20;;
4519;SDS011;2272;49.226;8.108;2023-07-09T11:18:55;2.90;;;2.70;;
4519;SDS011;2272;49.226;8.108;2023-07-09T11:21:25;3.20;;;3.00;;
4519;SDS011;2272;49.226;8.108;2023-07-09T11:23:54;3.53;;;3.23;;
4519;SDS011;2272;49.226;8.108;2023-07-09T11:26:25;3.50;;;3.20;;
4519;SDS011;2272;49.226;8.108;2023-07-09T11:28:54;4.40;;;2.97;;
4519;SDS011;2272;49.226;8.108;2023-07-09T11:31:22;3.80;;;3.43;;
4519;SDS011;2272;49.226;8.108;2023-07-09T11:33:58;7.43;;;3.20;;
4519;SDS011;2272;49.226;8.108;2023-07-09T11:36:28;3.93;;;3.27;;
4519;SDS011;2272;49.226;8.108;2023-07-09T11:38:58;2.67;;;2.47;;
4519;SDS011;2272;49.226;8.108;2023-07-09T11:41:26;6.40;;;3.27;;
4519;SDS011;2272;49.226;8.108;2023-07-09T11:44:02;5.27;;;2.80;;
4519;SDS011;2272;49.226;8.108;2023-07-09T11:46:31;2.80;;;2.70;;
4519;SDS011;2272;49.226;8.108;2023-07-09T11:49:01;3.10;;;2.53;;
4519;SDS011;2272;49.226;8.108;2023-07-09T11:51:40;5.27;;;2.47;;
4519;SDS011;2272;49.226;8.108;2023-07-09T11:54:11;3.30;;;3.00;;
4519;SDS011;2272;49.226;8.108;2023-07-09T11:56:39;3.20;;;2.80;;
4519;SDS011;2272;49.226;8.108;2023-07-09T11:59:06;5.10;;;3.23;;
4519;SDS011;2272;49.226;8.108;2023-07-09T12:01:38;5.20;;;2.83;;
4519;SDS011;2272;49.226;8.108;2023-07-09T12:04:11;13.63;;;3.40;;
4519;SDS011;2272;49.226;8.108;2023-07-09T12:06:40;2.70;;;2.47;;
4519;SDS011;2272;49.226;8.108;2023-07-09T12:09:08;2.70;;;2.60;;
4519;SDS011;2272;49.226;8.108;2023-07-09T12:11:42;5.70;;;3.20;;
4519;SDS011;2272;49.226;8.108;2023-07-09T12:14:11;6.27;;;3.23;;
4519;SDS011;2272;49.226;8.108;2023-07-09T12:16:40;3.03;;;2.80;;
4519;SDS011;2272;49.226;8.108;2023-07-09T12:19:07;5.60;;;3.67;;
4519;SDS011;2272;49.226;8.108;2023-07-09T12:21:37;3.80;;;3.50;;
4519;SDS011;2272;49.226;8.108;2023-07-09T12:24:13;3.47;;;3.27;;
4519;SDS011;2272;49.226;8.108;2023-07-09T12:26:46;3.60;;;3.00;;
4519;SDS011;2272;49.226;8.108;2023-07-09T12:29:14;3.07;;;2.87;;
4519;SDS011;2272;49.226;8.108;2023-07-09T12:31:41;3.83;;;3.53;;
4519;SDS011;2272;49.226;8.108;2023-07-09T12:34:10;10.03;;;3.60;;
4519;SDS011;2272;49.226;8.108;2023-07-09T12:36:39;3.00;;;2.80;;
4519;SDS011;2272;49.226;8.108;2023-07-09T12:39:10;4.83;;;4.47;;
4519;SDS011;2272;49.226;8.108;2023-07-09T12:41:40;4.93;;;3.43;;
4519;SDS011;2272;49.226;8.108;2023-07-09T12:44:11;3.50;;;3.20;;
4519;SDS011;2272;49.226;8.108;2023-07-09T12:46:42;4.67;;;2.90;;
4519;SDS011;2272;49.226;8.108;2023-07-09T12:49:11;6.10;;;3.37;;
4519;SDS011;2272;49.226;8.108;2023-07-09T12:51:46;3.27;;;3.07;;
4519;SDS011;2272;49.226;8.108;2023-07-09T12:54:14;3.30;;;3.00;;
4519;SDS011;2272;49.226;8.108;2023-07-09T12:56:43;2.83;;;2.63;;
4519;SDS011;2272;49.226;8.108;2023-07-09T12:59:15;8.00;;;3.03;;
4519;SDS011;2272;49.226;8.108;2023-07-09T13:01:47;3.17;;;2.83;;
4519;SDS011;2272;49.226;8.108;2023-07-09T13:04:15;3.90;;;2.70;;
4519;SDS011;2272;49.226;8.108;2023-07-09T13:06:41;3.90;;;3.37;;
4519;SDS011;2272;49.226;8.108;2023-07-09T13:09:11;6.53;;;3.30;;
4519;SDS011;2272;49.226;8.108;2023-07-09T13:11:44;7.37;;;3.10;;
4519;SDS011;2272;49.226;8.108;2023-07-09T13:14:16;3.10;;;2.80;;
4519;SDS011;2272;49.226;8.108;2023-07-09T13:16:45;3.10;;;2.90;;
4519;SDS011;2272;49.226;8.108;2023-07-09T13:19:12;3.47;;;2.97;;
4519;SDS011;2272;49.226;8.108;2023-07-09T13:21:39;4.90;;;2.90;;
4519;SDS011;2272;49.226;8.108;2023-07-09T13:24:09;2.85;;;2.65;;
4519;SDS011;2272;49.226;8.108;2023-07-09T13:26:38;6.10;;;2.97;;
4519;SDS011;2272;49.226;8.108;2023-07-09T13:29:09;3.28;;;2.42;;
4519;SDS011;2272;49.226;8.108;2023-07-09T13:31:37;2.70;;;2.60;;
4519;SDS011;2272;49.226;8.108;2023-07-09T13:34:04;2.70;;;2.40;;
4519;SDS011;2272;49.226;8.108;2023-07-09T13:36:39;9.25;;;2.80;;
4519;SDS011;2272;49.226;8.108;2023-07-09T13:39:07;2.88;;;2.78;;
4519;SDS011;2272;49.226;8.108;2023-07-09T13:41:35;3.85;;;3.20;;
4519;SDS011;2272;49.226;8.108;2023-07-09T13:44:04;6.90;;;2.60;;
4519;SDS011;2272;49.226;8.108;2023-07-09T13:46:39;7.30;;;3.27;;
4519;SDS011;2272;49.226;8.108;2023-07-09T13:49:08;3.15;;;2.53;;
4519;SDS011;2272;49.226;8.108;2023-07-09T13:51:35;3.33;;;2.83;;
4519;SDS011;2272;49.226;8.108;2023-07-09T13:54:05;8.73;;;2.83;;
4519;SDS011;2272;49.226;8.108;2023-07-09T13:56:39;4.93;;;3.23;;
4519;SDS011;2272;49.226;8.108;2023-07-09T13:59:08;6.57;;;2.80;;
4519;SDS011;2272;49.226;8.108;2023-07-09T14:01:41;2.63;;;2.53;;
4519;SDS011;2272;49.226;8.108;2023-07-09T14:04:08;3.07;;;2.87;;
4519;SDS011;2272;49.226;8.108;2023-07-09T14:06:36;6.60;;;3.07;;
4519;SDS011;2272;49.226;8.108;2023-07-09T14:09:03;2.77;;;2.67;;
4519;SDS011;2272;49.226;8.108;2023-07-09T14:11:31;5.50;;;3.33;;
4519;SDS011;2272;49.226;8.108;2023-07-09T14:13:58;3.00;;;2.80;;
4519;SDS011;2272;49.226;8.108;2023-07-09T14:16:26;3.80;;;3.07;;
4519;SDS011;2272;49.226;8.108;2023-07-09T14:18:53;7.73;;;2.90;;
4519;SDS011;2272;49.226;8.108;2023-07-09T14:21:21;4.17;;;3.10;;
4519;SDS011;2272;49.226;8.108;2023-07-09T14:23:51;3.80;;;3.33;;
4519;SDS011;2272;49.226;8.108;2023-07-09T14:26:18;3.60;;;2.47;;
4519;SDS011;2272;49.226;8.108;2023-07-09T14:28:45;3.10;;;2.63;;
4519;SDS011;2272;49.226;8.108;2023-07-09T14:31:19;2.70;;;2.60;;
4519;SDS011;2272;49.226;8.108;2023-07-09T14:33:50;3.27;;;3.00;;
4519;SDS011;2272;49.226;8.108;2023-07-09T14:36:17;2.63;;;2.53;;
4519;SDS011;2272;49.226;8.108;2023-07-09T14:38:44;3.00;;;2.90;;
4519;SDS011;2272;49.226;8.108;2023-07-09T14:41:16;2.60;;;2.50;;
4519;SDS011;2272;49.226;8.108;2023-07-09T14:43:47;2.77;;;2.63;;
4519;SDS011;2272;49.226;8.108;2023-07-09T14:46:14;4.30;;;2.90;;
4519;SDS011;2272;49.226;8.108;2023-07-09T14:48:41;2.75;;;2.63;;
4519;SDS011;2272;49.226;8.108;2023-07-09T14:51:12;4.63;;;3.63;;
4519;SDS011;2272;49.226;8.108;2023-07-09T14:53:40;4.03;;;3.00;;
4519;SDS011;2272;49.226;8.108;2023-07-09T14:56:09;5.13;;;2.87;;
4519;SDS011;2272;49.226;8.108;2023-07-09T14:58:37;3.83;;;3.20;;
4519;SDS011;2272;49.226;8.108;2023-07-09T15:01:04;3.20;;;3.00;;
4519;SDS011;2272;49.226;8.108;2023-07-09T15:03:35;4.97;;;3.40;;
4519;SDS011;2272;49.226;8.108;2023-07-09T15:06:02;2.50;;;2.30;;
4519;SDS011;2272;49.226;8.108;2023-07-09T15:08:30;3.33;;;3.13;;
4519;SDS011;2272;49.226;8.108;2023-07-09T15:10:58;5.23;;;3.40;;
4519;SDS011;2272;49.226;8.108;2023-07-09T15:13:26;2.80;;;2.60;;
4519;SDS011;2272;49.226;8.108;2023-07-09T15:15:56;4.17;;;2.60;;
4519;SDS011;2272;49.226;8.108;2023-07-09T15:18:23;2.97;;;2.77;;
4519;SDS011;2272;49.226;8.108;2023-07-09T15:20:50;4.43;;;2.90;;
4519;SDS011;2272;49.226;8.108;2023-07-09T15:23:19;3.47;;;3.10;;
4519;SDS011;2272;49.226;8.108;2023-07-09T15:25:48;2.70;;;2.50;;
4519;SDS011;2272;49.226;8.108;2023-07-09T15:28:16;3.03;;;2.70;;
4519;SDS011;2272;49.226;8.108;2023-07-09T15:30:43;3.00;;;2.80;;
4519;SDS011;2272;49.226;8.108;2023-07-09T15:33:13;4.20;;;3.10;;